METAR Data
IDs: Format: Raw Decoded Include TAF

Data at: 0425 UTC 26 Sep 2018

KMYF 260353Z 35007KT 10SM OVC013 19/15 A2994 RMK AO2 SLP135 T01890150
KMYF 260253Z 32005KT 10SM BKN013 19/15 A2992 RMK AO2 SLP128 T01890150 53006
KMYF 260153Z 29007KT 10SM FEW021 19/15 A2991 RMK AO2 SLP123 T01940150
KMYF 260053Z 30007KT 10SM FEW020 20/15 A2991 RMK AO2 SLP123 T02000150
KMYF 252353Z 31009KT 10SM FEW020 22/15 A2990 RMK AO2 SLP121 T02170150 10239 20206 56007
KMYF 252253Z COR 28007KT 10SM FEW020 22/14 A2991 RMK AO2 SLP123 T02220144
KMYF 252153Z AUTO 28008KT 10SM CLR 22/14 A2991 RMK AO2 SLP123 T02220144
KMYF 252053Z 29009KT 10SM CLR 23/14 A2992 RMK AO2 SLP129 T02330144 58015
KMYF 251953Z 30008KT 250V040 10SM FEW022 23/15 A2994 RMK AO2 SLP134 T02280150
KMYF 251936Z 00000KT 10SM SCT022 22/15 A2995 RMK AO2 T02220150
KMYF 251853Z 34003KT 10SM OVC022 21/14 A2995 RMK AO2 SLP139 T02110144
KMYF 251753Z 28004KT 10SM OVC019 21/14 A2997 RMK AO2 SLP143 T02060144 10206 20172 51008
KMYF 251653Z 34005KT 10SM OVC017 19/14 A2996 RMK AO2 SLP142 T01940144
KMYF 251553Z 05003KT 10SM OVC016 19/14 A2995 RMK AO2 SLP140 T01890144
KMYF 251540Z 05003KT 10SM OVC016 19/14 A2995 RMK AO2 T01890144
KMYF 251453Z 00000KT 9SM OVC013 18/14 A2994 RMK AO2 SLP136 T01830144 53016
KMYF 251353Z 00000KT 9SM OVC010 18/15 A2992 RMK AO2 SLP127 T01780150
KMYF 251253Z 04003KT 9SM OVC009 18/15 A2990 RMK AO2 SLP122 T01780150
KMYF 251153Z AUTO 00000KT 9SM OVC009 18/16 A2989 RMK AO2 SLP119 T01780156 10183 20172 55000
KMYF 251053Z AUTO 29003KT 8SM OVC008 18/15 A2988 RMK AO2 SLP116 T01780150
KMYF 250953Z AUTO 33005KT 9SM OVC009 18/16 A2989 RMK AO2 SLP118 T01780156
KMYF 250853Z AUTO 31004KT 9SM OVC009 18/16 A2989 RMK AO2 SLP119 T01780156 58001
KMYF 250804Z AUTO 00000KT 9SM OVC009 18/16 A2989 RMK AO2 T01780156
KMYF 250753Z AUTO 01003KT 9SM OVC010 18/16 A2990 RMK AO2 SLP120 T01830156 402000178
KMYF 250653Z AUTO 31003KT 10SM OVC011 18/15 A2990 RMK AO2 SLP122 T01830150
KMYF 250553Z AUTO 00000KT 10SM OVC011 18/15 A2990 RMK AO2 SLP120 T01830150 10189 20178 51004
KMYF 250453Z 31004KT 10SM OVC011 18/15 A2990 RMK AO2 SLP120 T01830150
KMYF 250353Z 35005KT 10SM OVC011 18/15 A2990 RMK AO2 SLP120 T01780150
KMYF 250253Z 32006KT 10SM OVC013 18/14 A2988 RMK AO2 SLP116 T01830144 53006
KMYF 250153Z 27005KT 10SM OVC014 18/14 A2987 RMK AO2 SLP111 T01830144
KMYF 250053Z 25004KT 10SM OVC014 18/14 A2987 RMK AO2 SLP110 T01830144
KMYF 242353Z 26006KT 10SM OVC014 19/14 A2987 RMK AO2 SLP110 T01890144 10200 20183 56009
KMYF 242253Z 23007KT 10SM OVC014 19/14 A2987 RMK AO2 SLP110 T01940144
KMYF 242153Z 26005KT 10SM OVC014 19/15 A2988 RMK AO2 SLP114 T01940150
KMYF 242053Z 30004KT 10SM OVC013 19/15 A2989 RMK AO2 SLP119 T01940150 58013
KMYF 241953Z 24007KT 9SM OVC010 19/15 A2991 RMK AO2 SLP126 T01890150
KMYF 241853Z 23006KT 6SM HZ OVC008 18/16 A2992 RMK AO2 SLP130 T01830156
KMYF 241753Z 24005KT 2 1/2SM BR OVC007 18/16 A2993 RMK AO2 SLP132 T01830161 10189 20178 53007
KMYF 241653Z 24005KT 3SM BR OVC006 18/16 A2993 RMK AO2 CIG 004V009 SLP130 T01780161